createdAt,value
2023-01-25T00:01:44.084Z,28.17
2023-01-25T00:04:12.903Z,26.00
2023-01-25T00:06:40.154Z,27.60
2023-01-25T00:09:07.764Z,23.52
2023-01-25T00:11:35.420Z,26.08
2023-01-25T00:14:03.199Z,25.05
2023-01-25T00:16:30.566Z,25.48
2023-01-25T00:18:58.440Z,25.40
2023-01-25T00:21:26.727Z,24.70
2023-01-25T00:23:54.675Z,27.05
2023-01-25T00:26:22.420Z,23.98
2023-01-25T00:28:54.281Z,24.98
2023-01-25T00:31:33.889Z,20.85
2023-01-25T00:34:24.299Z,25.67
2023-01-25T00:36:57.096Z,22.90
2023-01-25T00:39:26.862Z,19.77
2023-01-25T00:41:54.737Z,23.40
2023-01-25T00:44:22.529Z,26.65
2023-01-25T00:46:49.895Z,23.85
2023-01-25T00:49:26.268Z,23.17
2023-01-25T00:51:55.649Z,25.90
2023-01-25T00:54:24.322Z,21.60
2023-01-25T00:56:53.965Z,23.90
2023-01-25T00:59:24.772Z,27.97
2023-01-25T01:01:53.747Z,22.38
2023-01-25T01:04:25.177Z,22.90
2023-01-25T01:06:54.264Z,24.48
2023-01-25T01:09:22.945Z,24.95
2023-01-25T01:11:52.802Z,22.90
2023-01-25T01:14:21.739Z,25.95
2023-01-25T01:16:49.240Z,22.88
2023-01-25T01:19:16.895Z,22.45
2023-01-25T01:21:44.332Z,22.77
2023-01-25T01:24:12.061Z,21.98
2023-01-25T01:26:39.398Z,23.50
2023-01-25T01:29:07.364Z,25.92
2023-01-25T01:31:34.906Z,24.73
2023-01-25T01:34:22.486Z,23.35
2023-01-25T01:36:49.858Z,22.83
2023-01-25T01:39:17.875Z,25.38
2023-01-25T01:41:45.343Z,22.08
2023-01-25T01:44:19.713Z,23.92
2023-01-25T01:46:58.903Z,28.45
2023-01-25T01:49:32.896Z,26.27
2023-01-25T01:52:15.834Z,25.55
2023-01-25T01:54:55.293Z,23.45
2023-01-25T01:57:27.104Z,21.42
2023-01-25T02:00:02.992Z,24.90
2023-01-25T02:02:41.645Z,25.08
2023-01-25T02:05:22.877Z,28.90
2023-01-25T02:07:53.840Z,25.88
2023-01-25T02:10:24.690Z,24.95
2023-01-25T02:12:55.707Z,27.13
2023-01-25T02:15:27.562Z,19.55
2023-01-25T02:17:56.025Z,23.33
2023-01-25T02:20:29.812Z,28.90
2023-01-25T02:23:22.598Z,27.08
2023-01-25T02:25:50.654Z,31.15
2023-01-25T02:28:41.205Z,30.08
2023-01-25T02:31:08.979Z,28.58
2023-01-25T02:33:37.222Z,26.15
2023-01-25T02:36:08.116Z,25.92
2023-01-25T02:38:40.055Z,26.15
2023-01-25T02:41:13.900Z,24.20
2023-01-25T02:43:41.969Z,28.13
2023-01-25T02:46:27.896Z,28.48
2023-01-25T02:48:56.292Z,28.10
2023-01-25T02:51:26.378Z,28.90
2023-01-25T02:53:55.964Z,26.20
2023-01-25T02:56:24.415Z,25.60
2023-01-25T02:58:52.273Z,27.40
2023-01-25T03:01:21.072Z,26.30
2023-01-25T03:03:48.917Z,28.17
2023-01-25T03:06:17.074Z,29.25
2023-01-25T03:08:44.479Z,32.90
2023-01-25T03:11:12.143Z,25.30
2023-01-25T03:13:39.561Z,24.13
2023-01-25T03:16:11.710Z,23.98
2023-01-25T03:18:41.821Z,26.42
2023-01-25T03:21:15.647Z,25.00
2023-01-25T03:23:44.959Z,27.35
2023-01-25T03:26:18.371Z,22.23
2023-01-25T03:29:02.773Z,23.70
2023-01-25T03:31:30.492Z,23.85
2023-01-25T03:33:57.838Z,25.83
2023-01-25T03:38:57.371Z,23.02
2023-01-25T03:41:25.014Z,24.10
2023-01-25T03:43:52.707Z,24.23
2023-01-25T03:46:20.333Z,23.55
2023-01-25T03:48:48.265Z,22.65
2023-01-25T03:51:16.731Z,25.17
2023-01-25T03:53:44.128Z,23.05
2023-01-25T03:56:20.093Z,24.35
2023-01-25T03:58:56.726Z,19.92
2023-01-25T04:01:24.543Z,22.65
2023-01-25T04:03:51.931Z,23.67
2023-01-25T04:06:19.631Z,24.90
2023-01-25T04:08:47.023Z,24.45
2023-01-25T04:11:14.682Z,23.42
2023-01-25T04:13:45.285Z,24.00
2023-01-25T04:16:15.707Z,28.85
2023-01-25T04:19:01.925Z,22.42
2023-01-25T04:21:31.270Z,21.30
2023-01-25T04:23:59.000Z,23.38
2023-01-25T04:26:26.712Z,23.40
2023-01-25T04:28:58.607Z,26.77
2023-01-25T04:31:26.313Z,23.65
2023-01-25T04:33:53.749Z,21.98
2023-01-25T04:36:21.392Z,24.70
2023-01-25T04:38:48.796Z,23.35
2023-01-25T04:41:16.332Z,23.13
2023-01-25T04:43:44.845Z,23.67
2023-01-25T04:46:13.522Z,22.13
2023-01-25T04:48:41.170Z,22.77
2023-01-25T04:51:09.599Z,25.77
2023-01-25T04:53:37.089Z,21.90
2023-01-25T04:56:07.235Z,26.90
2023-01-25T04:58:43.398Z,28.35
2023-01-25T05:01:11.821Z,25.52
2023-01-25T05:03:39.190Z,25.73
2023-01-25T05:06:13.503Z,29.10
2023-01-25T05:08:40.997Z,29.40
2023-01-25T05:11:08.628Z,28.35
2023-01-25T05:14:05.112Z,27.40
2023-01-25T05:16:34.258Z,31.20
2023-01-25T05:19:02.513Z,29.98
2023-01-25T05:21:58.093Z,30.38
2023-01-25T05:24:32.562Z,30.90
2023-01-25T05:27:04.049Z,27.20
2023-01-25T05:29:57.964Z,29.88
2023-01-25T05:32:50.318Z,31.25
2023-01-25T05:35:18.554Z,30.75
2023-01-25T05:37:46.882Z,28.73
2023-01-25T05:40:21.905Z,30.27
2023-01-25T05:43:02.695Z,32.63
2023-01-25T05:45:31.267Z,33.30
2023-01-25T05:47:59.367Z,31.77
2023-01-25T05:50:27.077Z,33.90
2023-01-25T05:53:01.048Z,36.38
2023-01-25T05:55:29.548Z,38.03
2023-01-25T05:58:01.228Z,47.25
2023-01-25T06:00:28.863Z,39.47
2023-01-25T06:03:01.040Z,34.42
2023-01-25T06:05:29.823Z,39.22
2023-01-25T06:07:58.690Z,40.08
2023-01-25T06:10:30.499Z,42.03
2023-01-25T06:12:59.236Z,38.42
2023-01-25T06:15:27.202Z,42.85
2023-01-25T06:17:58.941Z,39.63
2023-01-25T06:20:39.361Z,41.78
2023-01-25T06:23:07.027Z,40.85
2023-01-25T06:25:34.277Z,45.53
2023-01-25T06:28:01.897Z,48.17
2023-01-25T06:30:29.280Z,46.20
2023-01-25T06:33:00.578Z,42.63
2023-01-25T06:35:29.073Z,54.65
2023-01-25T06:37:57.549Z,46.50
2023-01-25T06:40:25.828Z,43.90
2023-01-25T06:42:53.693Z,49.92
2023-01-25T06:45:21.045Z,46.90
2023-01-25T06:47:49.277Z,51.72
2023-01-25T06:50:16.658Z,46.30
2023-01-25T06:52:51.998Z,50.05
2023-01-25T06:55:19.747Z,51.10
2023-01-25T06:57:48.074Z,51.75
2023-01-25T07:00:18.809Z,49.80
2023-01-25T07:02:46.637Z,57.33
2023-01-25T07:05:14.086Z,47.35
2023-01-25T07:07:45.268Z,52.25
2023-01-25T07:10:12.716Z,63.77
2023-01-25T07:12:40.425Z,47.28
2023-01-25T07:15:08.667Z,54.55
2023-01-25T07:17:36.575Z,48.03
2023-01-25T07:20:04.094Z,51.67
2023-01-25T07:22:31.650Z,56.67
2023-01-25T07:24:59.112Z,50.63
2023-01-25T07:27:26.670Z,50.88
2023-01-25T07:29:54.188Z,50.40
2023-01-25T07:32:21.766Z,49.95
2023-01-25T07:34:49.021Z,45.92
2023-01-25T07:37:16.718Z,44.13
2023-01-25T07:39:49.605Z,42.08
2023-01-25T07:42:17.271Z,45.25
2023-01-25T07:44:52.131Z,46.10
2023-01-25T07:47:19.762Z,50.53
2023-01-25T07:49:47.022Z,42.83
2023-01-25T07:52:14.710Z,40.83
2023-01-25T07:54:42.061Z,43.13
2023-01-25T07:57:09.684Z,39.70
2023-01-25T07:59:36.934Z,45.75
2023-01-25T08:02:04.469Z,40.13
2023-01-25T08:04:31.764Z,40.67
2023-01-25T08:06:59.477Z,39.60
2023-01-25T08:09:26.865Z,41.28
2023-01-25T08:11:54.808Z,45.03
2023-01-25T08:14:22.191Z,39.33
2023-01-25T08:16:49.728Z,41.63
2023-01-25T08:19:17.069Z,37.60
2023-01-25T08:21:44.682Z,42.55
2023-01-25T08:24:12.070Z,42.30
2023-01-25T08:26:39.683Z,41.90
2023-01-25T08:29:07.145Z,38.92
2023-01-25T08:31:35.800Z,38.53
2023-01-25T08:34:03.678Z,43.17
2023-01-25T08:36:31.280Z,41.60
2023-01-25T08:39:01.003Z,41.63
2023-01-25T08:41:30.571Z,37.53
2023-01-25T08:43:58.639Z,44.50
2023-01-25T08:46:30.346Z,42.63
2023-01-25T08:49:01.207Z,40.88
2023-01-25T08:51:29.731Z,50.60
2023-01-25T08:53:57.303Z,53.15
2023-01-25T08:56:25.158Z,61.38
2023-01-25T08:58:52.493Z,53.90
2023-01-25T09:01:20.452Z,55.85
2023-01-25T09:03:49.738Z,51.75
2023-01-25T09:06:18.457Z,53.20
2023-01-25T09:08:46.119Z,56.20
2023-01-25T09:11:19.583Z,59.50
2023-01-25T09:13:48.523Z,58.88
2023-01-25T09:16:20.736Z,58.35
2023-01-25T09:21:19.471Z,59.42
2023-01-25T09:24:05.433Z,59.30
2023-01-25T09:26:36.440Z,60.13
2023-01-25T09:29:04.093Z,65.55
2023-01-25T09:31:31.840Z,59.78
2023-01-25T09:34:04.886Z,69.80
2023-01-25T09:36:32.419Z,66.38
2023-01-25T09:39:00.008Z,68.78
2023-01-25T09:41:33.637Z,64.03
2023-01-25T09:44:26.659Z,67.22
2023-01-25T09:46:58.584Z,67.85
2023-01-25T09:49:47.205Z,73.13
2023-01-25T09:52:57.022Z,71.07
2023-01-25T09:55:27.877Z,64.90
2023-01-25T09:58:00.358Z,67.28
2023-01-25T10:00:36.222Z,67.43
2023-01-25T10:03:25.077Z,68.95
2023-01-25T10:05:58.005Z,68.90
2023-01-25T10:08:32.931Z,63.35
2023-01-25T10:11:11.914Z,67.25
2023-01-25T10:13:39.679Z,70.57
2023-01-25T10:16:24.556Z,69.00
2023-01-25T10:19:20.028Z,68.53
2023-01-25T10:21:56.443Z,74.15
2023-01-25T10:24:45.583Z,68.65
2023-01-25T10:27:31.728Z,65.80
2023-01-25T10:30:02.666Z,69.60
2023-01-25T10:32:35.832Z,52.20
2023-01-25T10:35:34.334Z,73.65
2023-01-25T10:38:10.615Z,66.35
2023-01-25T10:40:52.700Z,65.63
2023-01-25T10:43:23.397Z,64.57
2023-01-25T10:45:51.704Z,50.90
2023-01-25T10:48:27.922Z,61.67
2023-01-25T10:50:57.675Z,59.00
2023-01-25T10:53:28.018Z,59.03
2023-01-25T10:56:12.250Z,57.65
2023-01-25T10:58:48.720Z,58.90
2023-01-25T11:01:31.596Z,49.60
2023-01-25T11:04:00.237Z,54.08
2023-01-25T11:06:36.995Z,55.97
2023-01-25T11:09:22.524Z,54.90
2023-01-25T11:12:00.838Z,56.30
2023-01-25T11:14:31.219Z,62.95
2023-01-25T11:17:01.187Z,61.17
2023-01-25T11:19:37.480Z,54.50
2023-01-25T11:22:21.731Z,54.88
2023-01-25T11:24:49.100Z,58.47
2023-01-25T11:27:25.976Z,55.70
2023-01-25T11:30:05.395Z,49.95
2023-01-25T11:32:33.493Z,52.47
2023-01-25T11:35:01.143Z,47.65
2023-01-25T11:37:54.477Z,48.95
2023-01-25T11:40:34.022Z,53.83
2023-01-25T11:43:39.200Z,55.47
2023-01-25T11:46:40.667Z,52.95
2023-01-25T11:49:30.963Z,56.35
2023-01-25T11:52:08.792Z,51.78
2023-01-25T11:55:17.348Z,51.53
2023-01-25T11:58:19.817Z,50.55
2023-01-25T12:00:50.447Z,55.50
2023-01-25T12:03:51.983Z,45.88
2023-01-25T12:06:37.899Z,53.58
2023-01-25T12:09:26.518Z,52.78
2023-01-25T12:12:00.118Z,61.03
2023-01-25T12:14:52.118Z,51.38
2023-01-25T12:17:28.466Z,52.05
2023-01-25T12:20:01.779Z,50.45
2023-01-25T12:22:51.213Z,46.13
2023-01-25T12:25:37.154Z,60.72
2023-01-25T12:28:12.028Z,45.75
2023-01-25T12:30:48.578Z,47.42
2023-01-25T12:33:20.969Z,55.25
2023-01-25T12:36:04.506Z,47.15
2023-01-25T12:39:04.610Z,43.38
2023-01-25T12:41:44.028Z,47.90
2023-01-25T12:44:18.747Z,45.42
2023-01-25T12:46:53.859Z,44.78
2023-01-25T12:49:33.474Z,50.28
2023-01-25T12:52:06.194Z,46.13
2023-01-25T12:54:42.864Z,48.92
2023-01-25T12:57:30.290Z,47.58
2023-01-25T13:00:14.650Z,41.80
2023-01-25T13:03:06.970Z,45.85
2023-01-25T13:05:39.375Z,48.92
2023-01-25T13:08:33.252Z,45.63
2023-01-25T13:11:19.466Z,49.38
2023-01-25T13:13:46.882Z,48.22
2023-01-25T13:16:25.204Z,46.83
2023-01-25T13:18:52.562Z,46.00
2023-01-25T13:21:56.649Z,48.60
2023-01-25T13:24:31.199Z,44.75
2023-01-25T13:27:00.321Z,45.33
2023-01-25T13:29:36.415Z,53.22
2023-01-25T13:32:24.913Z,50.50
2023-01-25T13:34:55.245Z,48.88
2023-01-25T13:37:31.537Z,54.75
2023-01-25T13:40:25.820Z,50.97
2023-01-25T13:43:02.104Z,45.80
2023-01-25T13:45:32.355Z,52.90
2023-01-25T13:48:13.277Z,50.75
2023-01-25T13:50:49.170Z,56.55
2023-01-25T13:53:16.663Z,55.33
2023-01-25T13:55:50.056Z,48.72
2023-01-25T13:58:25.595Z,52.22
2023-01-25T14:00:59.016Z,55.40
2023-01-25T14:03:43.021Z,63.63
2023-01-25T14:06:19.068Z,55.25
2023-01-25T14:08:47.777Z,54.22
2023-01-25T14:11:24.091Z,58.15
2023-01-25T14:14:26.842Z,57.72
2023-01-25T14:17:04.674Z,58.33
2023-01-25T14:19:32.307Z,56.38
2023-01-25T14:22:28.429Z,51.53
2023-01-25T14:25:14.218Z,64.47
2023-01-25T14:27:53.782Z,59.33
2023-01-25T14:30:23.264Z,55.35
2023-01-25T14:32:52.482Z,58.20
2023-01-25T14:35:42.359Z,65.15
2023-01-25T14:38:30.368Z,55.63
2023-01-25T14:41:22.267Z,60.60
2023-01-25T14:43:53.241Z,66.80
2023-01-25T14:46:28.551Z,58.50
2023-01-25T14:49:28.176Z,58.35
2023-01-25T14:52:16.580Z,60.67
2023-01-25T14:54:53.188Z,52.78
2023-01-25T14:57:35.813Z,51.47
2023-01-25T15:00:17.041Z,57.17
2023-01-25T15:02:48.045Z,54.67
2023-01-25T15:05:27.564Z,55.20
2023-01-25T15:07:58.884Z,52.63
2023-01-25T15:10:31.558Z,57.10
2023-01-25T15:13:13.273Z,53.10
2023-01-25T15:15:58.620Z,52.28
2023-01-25T15:18:52.773Z,51.15
2023-01-25T15:21:25.661Z,53.38
2023-01-25T15:23:55.238Z,51.83
2023-01-25T15:26:28.453Z,54.38
2023-01-25T15:28:58.870Z,54.65
2023-01-25T15:31:32.800Z,63.45
2023-01-25T15:34:01.738Z,50.35
2023-01-25T15:36:31.067Z,55.45
2023-01-25T15:38:58.784Z,52.88
2023-01-25T15:41:26.187Z,53.42
2023-01-25T15:43:53.912Z,54.45
2023-01-25T15:46:25.138Z,51.15
2023-01-25T15:48:53.567Z,53.97
2023-01-25T15:51:21.305Z,52.20
2023-01-25T15:53:48.924Z,52.05
2023-01-25T15:56:19.343Z,47.38
2023-01-25T15:58:59.747Z,51.63
2023-01-25T16:01:29.175Z,55.42
2023-01-25T16:03:59.008Z,49.90
2023-01-25T16:06:41.516Z,54.17
2023-01-25T16:09:15.642Z,49.85
2023-01-25T16:11:43.648Z,55.83
2023-01-25T16:14:11.598Z,51.10
2023-01-25T16:16:45.371Z,54.30
2023-01-25T16:19:15.478Z,53.05
2023-01-25T16:21:43.431Z,51.40
2023-01-25T16:24:12.162Z,57.95
2023-01-25T16:26:44.631Z,58.40
2023-01-25T16:29:12.517Z,55.28
2023-01-25T16:31:39.900Z,57.65
2023-01-25T16:34:07.480Z,53.33
2023-01-25T16:36:35.317Z,53.30
2023-01-25T16:39:28.935Z,56.05
2023-01-25T16:41:57.585Z,54.65
2023-01-25T16:44:25.356Z,63.63
2023-01-25T16:46:52.655Z,55.22
2023-01-25T16:49:22.553Z,56.85
2023-01-25T16:51:50.682Z,56.65
2023-01-25T16:54:20.037Z,59.20
2023-01-25T16:56:48.896Z,59.50
2023-01-25T16:59:18.240Z,54.65
2023-01-25T17:01:46.414Z,54.50
2023-01-25T17:04:14.766Z,60.05
2023-01-25T17:06:44.800Z,55.72
2023-01-25T17:09:25.376Z,54.03
2023-01-25T17:11:54.271Z,52.42
2023-01-25T17:14:23.077Z,52.88
2023-01-25T17:16:55.102Z,59.88
2023-01-25T17:21:50.111Z,56.67
2023-01-25T17:24:21.236Z,59.08
2023-01-25T17:26:48.635Z,58.30
2023-01-25T17:29:16.300Z,55.28
2023-01-25T17:31:44.586Z,56.70
2023-01-25T17:34:16.096Z,55.80
2023-01-25T17:36:44.056Z,55.83
2023-01-25T17:39:16.847Z,59.70
2023-01-25T17:41:45.358Z,62.30
2023-01-25T17:44:14.235Z,58.20
2023-01-25T17:46:41.526Z,56.83
2023-01-25T17:49:12.817Z,53.58
2023-01-25T17:51:40.286Z,63.50
2023-01-25T17:54:08.316Z,64.30
2023-01-25T17:56:37.904Z,61.80
2023-01-25T17:59:09.146Z,63.33
2023-01-25T18:01:36.686Z,57.63
2023-01-25T18:04:07.740Z,56.47
2023-01-25T18:06:35.389Z,54.40
2023-01-25T18:09:04.383Z,54.63
2023-01-25T18:11:35.297Z,51.05
2023-01-25T18:14:08.313Z,49.25
2023-01-25T18:16:38.842Z,48.90
2023-01-25T18:19:07.631Z,53.28
2023-01-25T18:21:35.828Z,50.85
2023-01-25T18:24:25.084Z,49.00
2023-01-25T18:26:59.345Z,49.00
2023-01-25T18:30:02.404Z,47.85
2023-01-25T18:32:32.857Z,51.97
2023-01-25T18:35:00.618Z,41.00
2023-01-25T18:37:33.491Z,44.70
2023-01-25T18:40:01.119Z,48.95
2023-01-25T18:42:28.430Z,45.78
2023-01-25T18:44:56.017Z,51.70
2023-01-25T18:47:23.889Z,48.88
2023-01-25T18:49:53.219Z,48.65
2023-01-25T18:52:22.529Z,50.72
2023-01-25T18:54:50.421Z,51.42
2023-01-25T18:57:17.824Z,54.20
2023-01-25T18:59:45.756Z,48.08
2023-01-25T19:02:16.022Z,49.42
2023-01-25T19:04:44.286Z,48.40
2023-01-25T19:07:12.325Z,50.70
2023-01-25T19:09:42.319Z,48.63
2023-01-25T19:12:10.168Z,54.75
2023-01-25T19:14:37.874Z,46.80
2023-01-25T19:17:05.114Z,50.33
2023-01-25T19:19:34.114Z,56.42
2023-01-25T19:22:01.561Z,57.83
2023-01-25T19:24:29.201Z,50.42
2023-01-25T19:26:56.814Z,55.05
2023-01-25T19:29:24.419Z,48.28
2023-01-25T19:31:51.767Z,52.58
2023-01-25T19:34:19.405Z,52.00
2023-01-25T19:36:50.056Z,47.33
2023-01-25T19:39:18.176Z,50.07
2023-01-25T19:41:46.559Z,47.22
2023-01-25T19:44:15.007Z,49.33
2023-01-25T19:46:42.784Z,51.38
2023-01-25T19:49:11.840Z,50.65
2023-01-25T19:51:42.273Z,46.25
2023-01-25T19:54:17.210Z,50.53
2023-01-25T19:56:49.526Z,48.05
2023-01-25T19:59:19.762Z,53.03
2023-01-25T20:01:47.964Z,50.00
2023-01-25T20:04:19.759Z,51.78
2023-01-25T20:06:48.121Z,47.40
2023-01-25T20:09:17.492Z,49.80
2023-01-25T20:11:46.358Z,51.10
2023-01-25T20:14:14.334Z,51.72
2023-01-25T20:16:41.670Z,50.30
2023-01-25T20:19:12.023Z,52.47
2023-01-25T20:21:39.941Z,45.95
2023-01-25T20:24:09.928Z,46.58
2023-01-25T20:26:39.776Z,45.78
2023-01-25T20:29:08.241Z,47.25
2023-01-25T20:31:38.010Z,50.45
2023-01-25T20:34:16.830Z,47.20
2023-01-25T20:36:45.025Z,47.45
2023-01-25T20:39:14.933Z,46.10
2023-01-25T20:41:42.665Z,44.08
2023-01-25T20:44:12.752Z,45.58
2023-01-25T20:46:42.076Z,47.10
2023-01-25T20:49:14.388Z,42.75
2023-01-25T20:54:11.228Z,39.70
2023-01-25T20:56:39.143Z,49.67
2023-01-25T20:59:06.885Z,39.83
2023-01-25T21:01:37.092Z,42.47
2023-01-25T21:04:07.194Z,40.45
2023-01-25T21:06:35.436Z,41.75
2023-01-25T21:09:04.262Z,38.08
2023-01-25T21:11:32.388Z,46.22
2023-01-25T21:14:00.246Z,41.55
2023-01-25T21:16:27.769Z,49.88
2023-01-25T21:19:00.301Z,44.60
2023-01-25T21:21:32.702Z,46.80
2023-01-25T21:24:02.652Z,47.03
2023-01-25T21:26:32.812Z,41.33
2023-01-25T21:29:01.770Z,44.08
2023-01-25T21:31:32.987Z,42.85
2023-01-25T21:34:01.515Z,45.90
2023-01-25T21:36:29.443Z,45.55
2023-01-25T21:38:58.177Z,44.78
2023-01-25T21:41:29.460Z,48.17
2023-01-25T21:44:17.708Z,43.05
2023-01-25T21:47:06.078Z,40.45
2023-01-25T21:49:52.035Z,43.83
2023-01-25T21:52:19.305Z,42.90
2023-01-25T21:54:46.897Z,39.78
2023-01-25T21:57:14.248Z,45.38
2023-01-25T21:59:41.825Z,42.55
2023-01-25T22:02:14.138Z,40.78
2023-01-25T22:04:41.990Z,44.08
2023-01-25T22:07:09.949Z,41.42
2023-01-25T22:09:37.703Z,45.03
2023-01-25T22:12:05.361Z,51.42
2023-01-25T22:14:32.923Z,48.05
2023-01-25T22:17:00.362Z,46.45
2023-01-25T22:19:27.914Z,46.17
2023-01-25T22:21:55.121Z,45.80
2023-01-25T22:24:22.887Z,44.50
2023-01-25T22:27:28.829Z,45.90
2023-01-25T22:29:56.378Z,42.35
2023-01-25T22:32:23.606Z,46.15
2023-01-25T22:34:51.276Z,41.55
2023-01-25T22:37:18.555Z,42.55
2023-01-25T22:39:46.263Z,44.72
2023-01-25T22:42:13.594Z,44.88
2023-01-25T22:44:41.361Z,42.85
2023-01-25T22:47:08.654Z,41.97
2023-01-25T22:49:36.190Z,42.22
2023-01-25T22:52:03.500Z,45.70
2023-01-25T22:54:31.063Z,44.90
2023-01-25T22:56:59.802Z,44.10
2023-01-25T22:59:27.422Z,48.55
2023-01-25T23:01:54.635Z,45.75
2023-01-25T23:04:22.237Z,40.35
2023-01-25T23:06:49.692Z,46.80
2023-01-25T23:09:17.229Z,44.45
2023-01-25T23:11:44.428Z,45.03
2023-01-25T23:14:31.017Z,42.53
2023-01-25T23:17:18.210Z,47.78
2023-01-25T23:19:45.943Z,45.80
2023-01-25T23:22:13.397Z,44.70
2023-01-25T23:24:41.000Z,44.30
2023-01-25T23:27:08.376Z,45.47
2023-01-25T23:29:37.232Z,39.95
2023-01-25T23:32:04.667Z,41.42
2023-01-25T23:34:34.947Z,46.97
2023-01-25T23:37:02.302Z,42.13
2023-01-25T23:39:29.883Z,46.05
2023-01-25T23:41:57.108Z,40.05
2023-01-25T23:44:24.680Z,37.15
2023-01-25T23:46:51.908Z,38.67
2023-01-25T23:49:19.434Z,40.97
2023-01-25T23:51:46.679Z,38.63
2023-01-25T23:54:14.433Z,36.67
2023-01-25T23:56:41.641Z,38.38
2023-01-25T23:59:09.223Z,40.63
